createdAt,value
2023-05-16T00:01:25.039Z,101891.59
2023-05-16T00:03:52.582Z,101899.47
2023-05-16T00:06:20.311Z,101898.59
2023-05-16T00:08:48.590Z,101893.38
2023-05-16T00:11:17.679Z,101894.22
2023-05-16T00:13:45.438Z,101899.47
2023-05-16T00:16:14.700Z,101903.69
2023-05-16T00:18:42.216Z,101902.19
2023-05-16T00:21:09.637Z,101896.88
2023-05-16T00:23:37.080Z,101896.63
2023-05-16T00:26:04.524Z,101896.56
2023-05-16T00:28:31.949Z,101893.22
2023-05-16T00:30:59.512Z,101891.97
2023-05-16T00:33:27.011Z,101898.72
2023-05-16T00:35:54.506Z,101890.56
2023-05-16T00:38:21.924Z,101899.06
2023-05-16T00:40:49.515Z,101892.13
2023-05-16T00:43:16.948Z,101897.47
2023-05-16T00:45:45.808Z,101891.41
2023-05-16T00:48:15.073Z,101895.69
2023-05-16T00:50:42.762Z,101892.78
2023-05-16T00:53:10.834Z,101893.09
2023-05-16T00:55:38.768Z,101896.50
2023-05-16T00:58:08.856Z,101891.41
2023-05-16T01:00:36.377Z,101895.81
2023-05-16T01:03:05.918Z,101901.94
2023-05-16T01:05:34.225Z,101897.47
2023-05-16T01:08:01.905Z,101888.75
2023-05-16T01:11:02.109Z,101887.31
2023-05-16T01:13:54.714Z,101894.31
2023-05-16T01:16:34.618Z,101897.66
2023-05-16T01:19:21.574Z,101893.34
2023-05-16T01:22:05.761Z,101894.13
2023-05-16T01:25:11.388Z,101901.66
2023-05-16T01:27:41.080Z,101902.94
2023-05-16T01:30:16.957Z,101895.78
2023-05-16T01:32:44.799Z,101903.78
2023-05-16T01:35:14.767Z,101892.38
2023-05-16T01:37:56.097Z,101888.00
2023-05-16T01:40:37.986Z,101903.03
2023-05-16T01:43:11.928Z,101899.31
2023-05-16T01:45:47.738Z,101906.47
2023-05-16T01:48:22.374Z,101899.06
2023-05-16T01:50:56.440Z,101896.31
2023-05-16T01:53:33.626Z,101901.41
2023-05-16T01:56:02.487Z,101899.81
2023-05-16T01:58:33.310Z,101901.66
2023-05-16T02:01:06.289Z,101900.59
2023-05-16T02:03:34.776Z,101902.81
2023-05-16T02:06:02.452Z,101910.50
2023-05-16T02:08:30.331Z,101906.22
2023-05-16T02:10:57.765Z,101905.25
2023-05-16T02:13:25.292Z,101900.81
2023-05-16T02:15:53.187Z,101904.22
2023-05-16T02:18:20.810Z,101900.59
2023-05-16T02:20:48.252Z,101895.09
2023-05-16T02:23:16.905Z,101908.19
2023-05-16T02:25:44.618Z,101897.47
2023-05-16T02:28:12.143Z,101894.78
2023-05-16T02:30:39.944Z,101892.63
2023-05-16T02:33:07.569Z,101890.72
2023-05-16T02:35:35.126Z,101894.16
2023-05-16T02:38:02.692Z,101899.06
2023-05-16T02:40:30.134Z,101895.50
2023-05-16T02:42:57.686Z,101896.03
2023-05-16T02:45:25.316Z,101900.94
2023-05-16T02:47:52.900Z,101899.91
2023-05-16T02:50:20.719Z,101894.59
2023-05-16T02:52:48.427Z,101889.13
2023-05-16T02:55:22.247Z,101889.91
2023-05-16T02:57:51.184Z,101897.56
2023-05-16T03:00:19.607Z,101893.03
2023-05-16T03:02:47.678Z,101901.63
2023-05-16T03:05:15.177Z,101902.38
2023-05-16T03:07:42.736Z,101898.06
2023-05-16T03:10:10.451Z,101897.16
2023-05-16T03:12:39.190Z,101895.41
2023-05-16T03:15:07.854Z,101897.13
2023-05-16T03:17:36.935Z,101902.28
2023-05-16T03:20:05.397Z,101901.44
2023-05-16T03:22:32.800Z,101901.28
2023-05-16T03:25:00.065Z,101902.13
2023-05-16T03:27:28.105Z,101897.59
2023-05-16T03:29:55.562Z,101895.81
2023-05-16T03:32:23.091Z,101905.25
2023-05-16T03:34:50.814Z,101903.19
2023-05-16T03:37:18.403Z,101898.78
2023-05-16T03:39:45.969Z,101899.00
2023-05-16T03:42:13.331Z,101909.19
2023-05-16T03:44:40.707Z,101903.75
2023-05-16T03:47:08.355Z,101916.72
2023-05-16T03:49:37.144Z,101910.53
2023-05-16T03:52:05.710Z,101914.72
2023-05-16T03:54:33.298Z,101912.94
2023-05-16T03:57:00.866Z,101913.59
2023-05-16T03:59:28.259Z,101913.53
2023-05-16T04:01:55.730Z,101917.69
2023-05-16T04:04:23.107Z,101913.28
2023-05-16T04:06:50.571Z,101910.50
2023-05-16T04:09:17.792Z,101908.59
2023-05-16T04:11:45.965Z,101905.03
2023-05-16T04:14:13.294Z,101917.94
2023-05-16T04:16:40.832Z,101909.97
2023-05-16T04:19:08.209Z,101915.22
2023-05-16T04:21:36.470Z,101918.44
2023-05-16T04:24:04.013Z,101917.59
2023-05-16T04:26:32.024Z,101915.00
2023-05-16T04:29:00.228Z,101907.44
2023-05-16T04:31:27.858Z,101919.75
2023-05-16T04:33:56.178Z,101921.53
2023-05-16T04:36:23.799Z,101923.31
2023-05-16T04:38:51.399Z,101918.41
2023-05-16T04:41:18.872Z,101919.53
2023-05-16T04:43:46.300Z,101921.50
2023-05-16T04:46:15.598Z,101926.25
2023-05-16T04:48:43.103Z,101926.22
2023-05-16T04:51:10.537Z,101924.25
2023-05-16T04:53:37.752Z,101919.94
2023-05-16T04:56:06.053Z,101926.97
2023-05-16T04:58:33.396Z,101919.06
2023-05-16T05:01:01.864Z,101922.41
2023-05-16T05:03:29.385Z,101921.25
2023-05-16T05:05:56.873Z,101914.59
2023-05-16T05:08:24.296Z,101918.28
2023-05-16T05:10:51.638Z,101921.91
2023-05-16T05:13:19.044Z,101924.47
2023-05-16T05:15:46.685Z,101921.63
2023-05-16T05:18:14.294Z,101919.53
2023-05-16T05:20:42.271Z,101933.97
2023-05-16T05:23:09.729Z,101924.59
2023-05-16T05:25:37.831Z,101922.13
2023-05-16T05:28:06.129Z,101926.53
2023-05-16T05:30:33.723Z,101927.34
2023-05-16T05:33:01.332Z,101928.06
2023-05-16T05:35:29.214Z,101924.31
2023-05-16T05:37:56.797Z,101930.13
2023-05-16T05:40:24.309Z,101931.50
2023-05-16T05:42:51.951Z,101939.88
2023-05-16T05:45:19.387Z,101934.09
2023-05-16T05:47:46.858Z,101943.19
2023-05-16T05:50:15.724Z,101949.66
2023-05-16T05:52:43.211Z,101943.56
2023-05-16T05:55:10.716Z,101956.19
2023-05-16T05:57:38.221Z,101953.53
2023-05-16T06:00:07.124Z,101960.63
2023-05-16T06:02:37.774Z,101956.22
2023-05-16T06:05:05.896Z,101962.59
2023-05-16T06:07:33.757Z,101960.72
2023-05-16T06:10:05.271Z,101960.75
2023-05-16T06:12:33.267Z,101953.69
2023-05-16T06:15:00.797Z,101968.00
2023-05-16T06:17:28.351Z,101967.34
2023-05-16T06:19:55.718Z,101975.47
2023-05-16T06:22:23.180Z,101969.53
2023-05-16T06:24:50.902Z,101965.34
2023-05-16T06:27:18.459Z,101968.22
2023-05-16T06:29:45.858Z,101976.66
2023-05-16T06:32:13.635Z,101979.72
2023-05-16T06:34:41.081Z,101978.13
2023-05-16T06:37:08.664Z,101977.66
2023-05-16T06:39:36.087Z,101984.25
2023-05-16T06:42:03.940Z,101981.88
2023-05-16T06:44:33.373Z,101980.22
2023-05-16T06:47:00.931Z,101981.22
2023-05-16T06:49:28.544Z,101987.97
2023-05-16T06:51:56.281Z,101986.34
2023-05-16T06:54:23.743Z,101992.69
2023-05-16T06:56:51.517Z,101990.53
2023-05-16T06:59:19.022Z,101989.03
2023-05-16T07:01:46.797Z,101987.59
2023-05-16T07:04:15.512Z,101993.06
2023-05-16T07:06:43.371Z,101986.88
2023-05-16T07:09:11.169Z,101989.81
2023-05-16T07:11:38.623Z,101992.19
2023-05-16T07:14:06.581Z,101985.22
2023-05-16T07:16:54.485Z,101991.94
2023-05-16T07:19:37.335Z,101994.56
2023-05-16T07:22:20.332Z,101994.69
2023-05-16T07:25:11.007Z,102002.75
2023-05-16T07:27:46.007Z,102003.47
2023-05-16T07:30:19.236Z,102004.09
2023-05-16T07:32:51.296Z,102002.41
2023-05-16T07:35:39.263Z,102005.25
2023-05-16T07:38:10.557Z,102006.16
2023-05-16T07:40:50.075Z,102007.56
2023-05-16T07:43:22.143Z,102010.34
2023-05-16T07:46:16.161Z,102005.75
2023-05-16T07:48:53.961Z,102007.00
2023-05-16T07:51:26.208Z,102004.13
2023-05-16T07:54:10.071Z,102015.13
2023-05-16T07:56:45.995Z,102018.31
2023-05-16T07:59:20.066Z,102021.75
2023-05-16T08:01:49.089Z,102014.38
2023-05-16T08:04:23.571Z,102020.56
2023-05-16T08:07:01.782Z,102022.06
2023-05-16T08:09:31.402Z,102019.59
2023-05-16T08:12:05.695Z,102023.69
2023-05-16T08:14:43.954Z,102025.19
2023-05-16T08:17:11.841Z,102018.25
2023-05-16T08:19:39.453Z,102018.78
2023-05-16T08:22:15.349Z,102019.19
2023-05-16T08:24:53.443Z,102016.06
2023-05-16T08:27:21.874Z,102013.69
2023-05-16T08:29:52.898Z,102014.50
2023-05-16T08:32:24.422Z,102007.59
2023-05-16T08:34:55.232Z,102013.47
2023-05-16T08:37:28.021Z,102018.59
2023-05-16T08:40:00.993Z,102018.50
2023-05-16T08:42:30.912Z,102017.09
2023-05-16T08:45:01.458Z,102016.09
2023-05-16T08:47:36.126Z,102017.78
2023-05-16T08:50:08.482Z,102014.34
2023-05-16T08:52:44.140Z,102009.34
2023-05-16T08:55:19.217Z,102016.56
2023-05-16T08:57:50.804Z,102013.38
2023-05-16T09:00:23.515Z,102008.06
2023-05-16T09:02:56.550Z,102001.22
2023-05-16T09:05:32.281Z,102005.69
2023-05-16T09:08:07.384Z,102008.66
2023-05-16T09:10:43.948Z,102007.53
2023-05-16T09:13:13.508Z,102001.28
2023-05-16T09:15:52.164Z,102015.25
2023-05-16T09:18:30.422Z,102010.94
2023-05-16T09:21:04.032Z,102007.81
2023-05-16T09:23:39.716Z,102008.53
2023-05-16T09:26:09.752Z,102020.31
2023-05-16T09:28:40.764Z,102011.50
2023-05-16T09:31:40.357Z,102012.09
2023-05-16T09:34:17.700Z,102007.69
2023-05-16T09:36:59.835Z,102006.16
2023-05-16T09:39:30.013Z,102002.03
2023-05-16T09:42:03.079Z,102004.03
2023-05-16T09:44:32.378Z,102006.13
2023-05-16T09:47:15.418Z,102023.13
2023-05-16T09:49:48.798Z,102006.59
2023-05-16T09:52:18.313Z,102004.53
2023-05-16T09:54:51.555Z,102005.06
2023-05-16T09:57:27.788Z,102002.91
2023-05-16T10:00:02.253Z,102004.66
2023-05-16T10:02:38.479Z,102010.34
2023-05-16T10:05:14.283Z,102001.69
2023-05-16T10:07:53.214Z,102002.63
2023-05-16T10:10:25.740Z,101998.84
2023-05-16T10:13:02.884Z,102009.31
2023-05-16T10:15:33.659Z,102000.84
2023-05-16T10:18:13.279Z,102002.00
2023-05-16T10:20:52.443Z,101994.78
2023-05-16T10:23:31.934Z,101998.16
2023-05-16T10:26:05.523Z,101990.22
2023-05-16T10:28:43.258Z,101993.34
2023-05-16T10:31:12.831Z,102004.81
2023-05-16T10:33:51.487Z,102000.69
2023-05-16T10:36:28.479Z,101984.78
2023-05-16T10:39:05.252Z,101992.31
2023-05-16T10:41:36.632Z,101979.56
2023-05-16T10:44:22.671Z,101988.56
2023-05-16T10:46:59.987Z,101987.22
2023-05-16T10:49:37.997Z,101985.06
2023-05-16T10:52:12.599Z,101985.22
2023-05-16T10:54:54.149Z,101981.66
2023-05-16T10:57:25.975Z,101987.94
2023-05-16T10:59:57.836Z,101983.94
2023-05-16T11:02:26.172Z,101992.13
2023-05-16T11:04:56.374Z,101975.69
2023-05-16T11:07:25.249Z,101987.28
2023-05-16T11:10:10.480Z,101984.31
2023-05-16T11:12:38.617Z,101979.25
2023-05-16T11:15:25.107Z,101985.91
2023-05-16T11:18:09.080Z,101981.78
2023-05-16T11:20:38.750Z,101983.59
2023-05-16T11:23:26.028Z,101979.50
2023-05-16T11:26:00.909Z,101971.31
2023-05-16T11:28:28.852Z,101971.16
2023-05-16T11:31:00.056Z,101975.97
2023-05-16T11:33:29.969Z,101978.81
2023-05-16T11:36:16.619Z,101982.44
2023-05-16T11:38:44.598Z,101982.56
2023-05-16T11:41:12.443Z,101977.53
2023-05-16T11:43:44.015Z,101981.72
2023-05-16T11:46:16.563Z,101987.31
2023-05-16T11:48:46.541Z,101986.69
2023-05-16T11:51:19.045Z,101984.28
2023-05-16T11:53:50.447Z,101979.00
2023-05-16T11:56:18.657Z,101984.44
2023-05-16T11:58:46.244Z,101980.16
2023-05-16T12:01:13.895Z,101976.72
2023-05-16T12:03:41.920Z,101981.00
2023-05-16T12:06:09.581Z,101972.91
2023-05-16T12:08:37.561Z,101963.94
2023-05-16T12:11:05.251Z,101960.38
2023-05-16T12:13:32.916Z,101958.38
2023-05-16T12:16:00.720Z,101962.63
2023-05-16T12:18:28.369Z,101955.41
2023-05-16T12:20:55.912Z,101963.16
2023-05-16T12:23:23.675Z,101947.91
2023-05-16T12:25:55.580Z,101957.53
2023-05-16T12:28:23.051Z,101963.75
2023-05-16T12:30:50.926Z,101957.66
2023-05-16T12:33:18.596Z,101945.31
2023-05-16T12:35:47.811Z,101961.00
2023-05-16T12:38:17.438Z,101958.34
2023-05-16T12:40:46.075Z,101956.84
2023-05-16T12:43:19.934Z,101955.72
2023-05-16T12:45:57.822Z,101961.66
2023-05-16T12:48:34.577Z,101962.47
2023-05-16T12:51:17.150Z,101955.03
2023-05-16T12:53:57.631Z,101956.47
2023-05-16T12:56:40.260Z,101956.50
2023-05-16T12:59:09.070Z,101956.53
2023-05-16T13:01:36.835Z,101950.66
2023-05-16T13:04:05.199Z,101942.75
2023-05-16T13:06:49.006Z,101945.00
2023-05-16T13:09:20.473Z,101955.41
2023-05-16T13:11:48.447Z,101942.63
2023-05-16T13:14:17.418Z,101951.03
2023-05-16T13:16:45.102Z,101964.34
2023-05-16T13:19:12.691Z,101959.94
2023-05-16T13:21:40.189Z,101962.75
2023-05-16T13:24:07.914Z,101956.41
2023-05-16T13:26:35.396Z,101968.13
2023-05-16T13:29:02.972Z,101966.84
2023-05-16T13:31:30.491Z,101959.91
2023-05-16T13:33:59.078Z,101958.16
2023-05-16T13:36:26.994Z,101961.53
2023-05-16T13:38:55.098Z,101954.31
2023-05-16T13:41:22.543Z,101956.81
2023-05-16T13:43:50.031Z,101958.00
2023-05-16T13:46:17.481Z,101961.69
2023-05-16T13:48:45.085Z,101952.03
2023-05-16T13:51:15.298Z,101952.25
2023-05-16T13:53:48.169Z,101947.91
2023-05-16T13:56:16.054Z,101954.94
2023-05-16T13:58:59.695Z,101959.38
2023-05-16T14:01:29.946Z,101952.22
2023-05-16T14:03:57.778Z,101947.72
2023-05-16T14:06:25.674Z,101961.84
2023-05-16T14:08:53.568Z,101961.84
2023-05-16T14:11:28.464Z,101956.84
2023-05-16T14:13:57.996Z,101961.22
2023-05-16T14:16:26.330Z,101960.28
2023-05-16T14:18:54.140Z,101958.56
2023-05-16T14:21:21.653Z,101959.63
2023-05-16T14:23:49.191Z,101961.38
2023-05-16T14:26:18.126Z,101961.34
2023-05-16T14:28:45.662Z,101956.06
2023-05-16T14:31:13.110Z,101961.34
2023-05-16T14:33:41.251Z,101958.72
2023-05-16T14:36:08.826Z,101956.06
2023-05-16T14:38:36.734Z,101961.34
2023-05-16T14:41:04.176Z,101958.66
2023-05-16T14:43:31.871Z,101964.81
2023-05-16T14:45:59.490Z,101964.94
2023-05-16T14:48:27.093Z,101959.63
2023-05-16T14:50:54.557Z,101960.50
2023-05-16T14:53:22.089Z,101965.81
2023-05-16T14:55:50.046Z,101960.50
2023-05-16T14:58:17.765Z,101950.81
2023-05-16T15:00:45.303Z,101958.03
2023-05-16T15:03:15.672Z,101959.75
2023-05-16T15:05:44.421Z,101954.47
2023-05-16T15:08:11.957Z,101950.06
2023-05-16T15:10:39.507Z,101957.16
2023-05-16T15:13:08.316Z,101946.56
2023-05-16T15:15:38.710Z,101940.44
2023-05-16T15:18:06.315Z,101946.66
2023-05-16T15:20:33.883Z,101952.81
2023-05-16T15:23:01.321Z,101959.88
2023-05-16T15:25:29.555Z,101956.41
2023-05-16T15:27:57.510Z,101951.13
2023-05-16T15:30:25.232Z,101946.72
2023-05-16T15:32:52.925Z,101945.03
2023-05-16T15:35:20.585Z,101957.31
2023-05-16T15:37:47.995Z,101952.94
2023-05-16T15:40:15.713Z,101951.19
2023-05-16T15:42:44.398Z,101956.44
2023-05-16T15:45:12.628Z,101960.81
2023-05-16T15:47:42.033Z,101954.69
2023-05-16T15:50:10.299Z,101948.50
2023-05-16T15:52:37.759Z,101949.41
2023-05-16T15:55:06.220Z,101954.66
2023-05-16T15:57:33.658Z,101958.19
2023-05-16T16:00:01.217Z,101952.03
2023-05-16T16:02:28.818Z,101948.50
2023-05-16T16:04:56.466Z,101961.69
2023-05-16T16:07:24.862Z,101952.03
2023-05-16T16:09:52.406Z,101958.22
2023-05-16T16:12:19.839Z,101957.34
2023-05-16T16:14:49.553Z,101967.03
2023-05-16T16:17:17.277Z,101969.66
2023-05-16T16:19:44.744Z,101967.00
2023-05-16T16:22:12.170Z,101973.19
2023-05-16T16:24:39.750Z,101974.06
2023-05-16T16:27:07.235Z,101975.81
2023-05-16T16:29:34.782Z,101980.22
2023-05-16T16:32:02.223Z,101971.41
2023-05-16T16:34:30.042Z,101977.56
2023-05-16T16:36:57.516Z,101972.31
2023-05-16T16:39:25.980Z,101967.00
2023-05-16T16:41:53.516Z,101967.88
2023-05-16T16:44:20.986Z,101977.59
2023-05-16T16:46:48.532Z,101981.97
2023-05-16T16:49:16.133Z,101974.94
2023-05-16T16:51:43.615Z,101972.28
2023-05-16T16:54:11.314Z,101990.78
2023-05-16T16:56:38.778Z,101977.59
2023-05-16T16:59:06.303Z,101981.06
2023-05-16T17:01:35.037Z,101981.09
2023-05-16T17:04:03.121Z,101980.19
2023-05-16T17:06:30.956Z,101976.69
2023-05-16T17:09:03.650Z,101971.41
2023-05-16T17:11:31.916Z,101976.69
2023-05-16T17:13:59.908Z,101979.28
2023-05-16T17:16:30.289Z,101966.09
2023-05-16T17:18:58.014Z,101976.59
2023-05-16T17:21:26.817Z,101981.03
2023-05-16T17:23:55.243Z,101976.63
2023-05-16T17:26:22.853Z,101985.44
2023-05-16T17:28:50.423Z,101981.03
2023-05-16T17:31:17.976Z,101972.19
2023-05-16T17:33:45.443Z,101965.22
2023-05-16T17:36:12.952Z,101975.75
2023-05-16T17:38:40.474Z,101972.25
2023-05-16T17:41:07.980Z,101982.75
2023-05-16T17:43:35.445Z,101985.38
2023-05-16T17:46:04.039Z,101982.75
2023-05-16T17:48:31.667Z,101986.25
2023-05-16T17:50:59.249Z,101995.00
2023-05-16T17:53:26.875Z,101986.22
2023-05-16T17:55:54.359Z,101985.28
2023-05-16T17:58:21.740Z,101987.00
2023-05-16T18:00:49.349Z,102000.16
2023-05-16T18:03:24.660Z,101995.69
2023-05-16T18:06:00.594Z,101998.34
2023-05-16T18:08:31.995Z,101999.22
2023-05-16T18:11:01.727Z,101993.06
2023-05-16T18:13:31.243Z,102000.06
2023-05-16T18:15:58.893Z,101993.91
2023-05-16T18:18:27.269Z,101993.91
2023-05-16T18:20:55.112Z,101993.91
2023-05-16T18:23:22.580Z,102004.44
2023-05-16T18:25:50.367Z,102000.00
2023-05-16T18:28:18.538Z,102007.03
2023-05-16T18:30:46.071Z,102005.25
2023-05-16T18:33:13.613Z,102004.31
2023-05-16T18:35:41.076Z,102006.06
2023-05-16T18:38:14.458Z,102008.59
2023-05-16T18:40:48.658Z,102013.88
2023-05-16T18:43:17.226Z,102013.88
2023-05-16T18:45:44.836Z,102014.75
2023-05-16T18:48:12.401Z,102004.03
2023-05-16T18:50:40.098Z,102010.16
2023-05-16T18:53:07.537Z,102012.78
2023-05-16T18:55:35.240Z,102020.63
2023-05-16T18:58:02.883Z,102017.09
2023-05-16T19:00:30.456Z,102018.84
2023-05-16T19:02:58.038Z,102026.59
2023-05-16T19:05:25.871Z,102029.19
2023-05-16T19:07:53.634Z,102036.97
2023-05-16T19:10:21.851Z,102036.09
2023-05-16T19:12:49.583Z,102045.59
2023-05-16T19:15:17.496Z,102040.34
2023-05-16T19:17:45.074Z,102049.88
2023-05-16T19:20:12.811Z,102052.41
2023-05-16T19:22:40.420Z,102053.38
2023-05-16T19:25:08.673Z,102052.22
2023-05-16T19:27:36.236Z,102064.34
2023-05-16T19:30:04.160Z,102058.34
2023-05-16T19:32:31.660Z,102057.19
2023-05-16T19:34:59.275Z,102062.38
2023-05-16T19:37:26.785Z,102066.75
2023-05-16T19:39:56.567Z,102071.13
2023-05-16T19:42:24.040Z,102065.72
2023-05-16T19:44:51.879Z,102067.38
2023-05-16T19:47:19.706Z,102062.56
2023-05-16T19:49:47.412Z,102071.38
2023-05-16T19:52:14.922Z,102073.13
2023-05-16T19:54:42.504Z,102089.03
2023-05-16T19:57:10.073Z,102088.78
2023-05-16T19:59:38.284Z,102085.19
2023-05-16T20:02:05.824Z,102086.75
2023-05-16T20:04:34.534Z,102087.56
2023-05-16T20:07:02.268Z,102086.03
2023-05-16T20:09:29.969Z,102091.00
2023-05-16T20:11:58.163Z,102089.78
2023-05-16T20:14:26.411Z,102095.56
2023-05-16T20:16:53.989Z,102109.28
2023-05-16T20:19:21.638Z,102108.41
2023-05-16T20:21:50.443Z,102103.94
2023-05-16T20:24:17.965Z,102101.03
2023-05-16T20:26:45.418Z,102109.94
2023-05-16T20:29:13.179Z,102103.91
2023-05-16T20:31:43.776Z,102114.09
2023-05-16T20:34:11.468Z,102118.69
2023-05-16T20:36:39.066Z,102113.50
2023-05-16T20:39:09.095Z,102124.69
2023-05-16T20:41:36.690Z,102129.53
2023-05-16T20:44:04.375Z,102133.97
2023-05-16T20:46:31.995Z,102131.38
2023-05-16T20:48:59.509Z,102137.22
2023-05-16T20:51:26.938Z,102142.72
2023-05-16T20:53:54.540Z,102138.00
2023-05-16T20:56:24.350Z,102143.50
2023-05-16T20:58:51.958Z,102144.97
2023-05-16T21:01:19.423Z,102145.00
2023-05-16T21:03:46.964Z,102137.22
2023-05-16T21:06:14.511Z,102145.84
2023-05-16T21:08:42.013Z,102140.41
2023-05-16T21:11:09.442Z,102154.03
2023-05-16T21:13:37.042Z,102151.06
2023-05-16T21:16:04.740Z,102154.44
2023-05-16T21:18:33.126Z,102157.06
2023-05-16T21:21:00.698Z,102156.13
2023-05-16T21:23:28.473Z,102160.22
2023-05-16T21:25:56.065Z,102156.69
2023-05-16T21:28:23.597Z,102149.88
2023-05-16T21:30:51.060Z,102153.25
2023-05-16T21:33:18.581Z,102166.97
2023-05-16T21:35:47.205Z,102164.56
2023-05-16T21:38:14.818Z,102169.09
2023-05-16T21:40:42.309Z,102168.94
2023-05-16T21:43:10.084Z,102168.81
2023-05-16T21:45:37.594Z,102162.94
2023-05-16T21:48:05.381Z,102173.06
2023-05-16T21:50:35.435Z,102171.28
2023-05-16T21:53:03.137Z,102164.25
2023-05-16T21:55:30.797Z,102169.41
2023-05-16T21:57:58.343Z,102171.09
2023-05-16T22:00:25.781Z,102171.06
2023-05-16T22:02:53.362Z,102173.53
2023-05-16T22:05:20.974Z,102177.78
2023-05-16T22:07:48.640Z,102179.19
2023-05-16T22:10:16.973Z,102180.81
2023-05-16T22:12:44.486Z,102186.38
2023-05-16T22:15:11.957Z,102185.31
2023-05-16T22:17:39.678Z,102186.75
2023-05-16T22:20:08.283Z,102195.25
2023-05-16T22:22:36.418Z,102183.56
2023-05-16T22:25:05.159Z,102200.03
2023-05-16T22:27:32.785Z,102198.06
2023-05-16T22:30:00.211Z,102193.13
2023-05-16T22:32:27.929Z,102193.13
2023-05-16T22:34:55.408Z,102198.44
2023-05-16T22:37:23.340Z,102192.66
2023-05-16T22:39:51.499Z,102200.19
2023-05-16T22:42:19.420Z,102206.16
2023-05-16T22:44:46.885Z,102209.78
2023-05-16T22:47:14.442Z,102205.13
2023-05-16T22:49:41.937Z,102198.81
2023-05-16T22:52:09.382Z,102200.44
2023-05-16T22:54:36.693Z,102196.88
2023-05-16T22:57:04.394Z,102200.88
2023-05-16T22:59:32.132Z,102201.06
2023-05-16T23:01:59.674Z,102205.91
2023-05-16T23:04:27.175Z,102210.31
2023-05-16T23:06:54.766Z,102213.38
2023-05-16T23:09:22.689Z,102218.00
2023-05-16T23:11:50.214Z,102204.16
2023-05-16T23:14:17.724Z,102204.34
2023-05-16T23:16:45.152Z,102208.44
2023-05-16T23:19:12.440Z,102204.06
2023-05-16T23:21:40.085Z,102210.56
2023-05-16T23:24:08.354Z,102217.25
2023-05-16T23:26:35.957Z,102210.22
2023-05-16T23:29:03.583Z,102214.44
2023-05-16T23:31:31.162Z,102204.81
2023-05-16T23:33:58.642Z,102209.50
2023-05-16T23:36:26.402Z,102218.41
2023-05-16T23:38:53.908Z,102215.75
2023-05-16T23:41:21.367Z,102207.53
2023-05-16T23:43:48.715Z,102207.78
2023-05-16T23:46:16.235Z,102201.63
2023-05-16T23:48:43.715Z,102197.00
2023-05-16T23:51:11.225Z,102196.09
2023-05-16T23:53:38.499Z,102203.00
2023-05-16T23:56:06.116Z,102201.78
2023-05-16T23:58:33.808Z,102199.63
